sensor_id;sensor_type;location;lat;lon;timestamp;pressure;altitude;pressure_sealevel;temperature;humidity
33280;BME280;20403;43.114;12.434;2022-12-07T00:02:01;98852.69;;;9.25;100.00
33280;BME280;20403;43.114;12.434;2022-12-07T00:04:26;98845.38;;;9.34;100.00
33280;BME280;20403;43.114;12.434;2022-12-07T00:06:51;98840.59;;;9.31;100.00
33280;BME280;20403;43.114;12.434;2022-12-07T00:09:17;98838.06;;;9.24;100.00
33280;BME280;20403;43.114;12.434;2022-12-07T00:11:43;98834.41;;;9.32;100.00
33280;BME280;20403;43.114;12.434;2022-12-07T00:14:13;98836.41;;;9.30;100.00
33280;BME280;20403;43.114;12.434;2022-12-07T00:16:38;98832.22;;;9.29;100.00
33280;BME280;20403;43.114;12.434;2022-12-07T00:19:04;98836.22;;;9.31;100.00
33280;BME280;20403;43.114;12.434;2022-12-07T00:21:31;98830.91;;;9.19;100.00
33280;BME280;20403;43.114;12.434;2022-12-07T00:23:56;98832.66;;;9.25;100.00
33280;BME280;20403;43.114;12.434;2022-12-07T00:26:23;98821.16;;;9.15;100.00
33280;BME280;20403;43.114;12.434;2022-12-07T00:28:50;98825.31;;;9.22;100.00
33280;BME280;20403;43.114;12.434;2022-12-07T00:31:16;98824.59;;;9.15;100.00
33280;BME280;20403;43.114;12.434;2022-12-07T00:33:42;98822.03;;;9.27;100.00
33280;BME280;20403;43.114;12.434;2022-12-07T00:36:08;98819.00;;;9.30;100.00
33280;BME280;20403;43.114;12.434;2022-12-07T00:38:35;98819.34;;;9.34;100.00
33280;BME280;20403;43.114;12.434;2022-12-07T00:41:03;98811.84;;;9.25;100.00
33280;BME280;20403;43.114;12.434;2022-12-07T00:43:29;98810.59;;;9.28;100.00
33280;BME280;20403;43.114;12.434;2022-12-07T00:45:54;98816.19;;;9.32;100.00
33280;BME280;20403;43.114;12.434;2022-12-07T00:48:19;98817.84;;;9.26;100.00
33280;BME280;20403;43.114;12.434;2022-12-07T00:50:45;98813.56;;;9.32;100.00
33280;BME280;20403;43.114;12.434;2022-12-07T00:53:10;98819.19;;;9.29;100.00
33280;BME280;20403;43.114;12.434;2022-12-07T00:55:35;98810.84;;;9.27;100.00
33280;BME280;20403;43.114;12.434;2022-12-07T00:58:01;98805.72;;;9.20;100.00
33280;BME280;20403;43.114;12.434;2022-12-07T01:00:26;98803.13;;;9.20;100.00
33280;BME280;20403;43.114;12.434;2022-12-07T01:02:52;98807.22;;;9.28;100.00
33280;BME280;20403;43.114;12.434;2022-12-07T01:05:18;98806.31;;;9.22;100.00
33280;BME280;20403;43.114;12.434;2022-12-07T01:07:43;98805.28;;;9.23;100.00
33280;BME280;20403;43.114;12.434;2022-12-07T01:10:08;98813.22;;;9.28;100.00
33280;BME280;20403;43.114;12.434;2022-12-07T01:12:34;98808.31;;;9.20;100.00
33280;BME280;20403;43.114;12.434;2022-12-07T01:14:59;98814.09;;;9.22;100.00
33280;BME280;20403;43.114;12.434;2022-12-07T01:17:24;98814.66;;;9.24;100.00
33280;BME280;20403;43.114;12.434;2022-12-07T01:19:50;98813.78;;;9.30;100.00
33280;BME280;20403;43.114;12.434;2022-12-07T01:22:15;98803.47;;;9.23;100.00
33280;BME280;20403;43.114;12.434;2022-12-07T01:24:40;98804.81;;;9.26;100.00
33280;BME280;20403;43.114;12.434;2022-12-07T01:27:05;98812.59;;;9.14;100.00
33280;BME280;20403;43.114;12.434;2022-12-07T01:29:31;98818.44;;;9.10;100.00
33280;BME280;20403;43.114;12.434;2022-12-07T01:31:56;98813.47;;;9.08;100.00
33280;BME280;20403;43.114;12.434;2022-12-07T01:34:21;98816.28;;;9.07;100.00
33280;BME280;20403;43.114;12.434;2022-12-07T01:36:46;98815.97;;;9.15;100.00
33280;BME280;20403;43.114;12.434;2022-12-07T01:39:12;98819.47;;;9.09;100.00
33280;BME280;20403;43.114;12.434;2022-12-07T01:41:38;98818.16;;;9.18;100.00
33280;BME280;20403;43.114;12.434;2022-12-07T01:46:36;98813.34;;;9.33;100.00
33280;BME280;20403;43.114;12.434;2022-12-07T01:49:02;98816.38;;;9.30;100.00
33280;BME280;20403;43.114;12.434;2022-12-07T01:51:29;98812.06;;;9.24;100.00
33280;BME280;20403;43.114;12.434;2022-12-07T01:53:55;98808.53;;;9.18;100.00
33280;BME280;20403;43.114;12.434;2022-12-07T01:56:23;98809.19;;;9.14;100.00
33280;BME280;20403;43.114;12.434;2022-12-07T01:58:49;98818.06;;;9.24;100.00
33280;BME280;20403;43.114;12.434;2022-12-07T02:01:16;98811.19;;;9.30;100.00
33280;BME280;20403;43.114;12.434;2022-12-07T02:03:43;98809.81;;;9.28;100.00
33280;BME280;20403;43.114;12.434;2022-12-07T02:06:10;98803.16;;;9.32;100.00
33280;BME280;20403;43.114;12.434;2022-12-07T02:08:37;98804.03;;;9.25;100.00
33280;BME280;20403;43.114;12.434;2022-12-07T02:11:03;98797.69;;;9.21;100.00
33280;BME280;20403;43.114;12.434;2022-12-07T02:13:31;98801.38;;;9.14;100.00
33280;BME280;20403;43.114;12.434;2022-12-07T02:21:11;98793.22;;;9.10;100.00
33280;BME280;20403;43.114;12.434;2022-12-07T02:28:35;98794.41;;;8.96;100.00
33280;BME280;20403;43.114;12.434;2022-12-07T02:31:20;98794.34;;;8.84;100.00
33280;BME280;20403;43.114;12.434;2022-12-07T02:33:53;98786.09;;;8.87;100.00
33280;BME280;20403;43.114;12.434;2022-12-07T02:36:30;98785.75;;;8.83;100.00
33280;BME280;20403;43.114;12.434;2022-12-07T02:39:02;98786.59;;;8.77;100.00
33280;BME280;20403;43.114;12.434;2022-12-07T02:41:35;98784.66;;;8.73;100.00
33280;BME280;20403;43.114;12.434;2022-12-07T02:44:04;98785.53;;;8.67;100.00
33280;BME280;20403;43.114;12.434;2022-12-07T02:46:42;98780.91;;;8.69;100.00
33280;BME280;20403;43.114;12.434;2022-12-07T02:49:07;98783.94;;;8.66;100.00
33280;BME280;20403;43.114;12.434;2022-12-07T02:51:33;98780.19;;;8.61;100.00
33280;BME280;20403;43.114;12.434;2022-12-07T02:54:07;98783.66;;;8.55;100.00
33280;BME280;20403;43.114;12.434;2022-12-07T03:07:04;98776.56;;;8.44;100.00
33280;BME280;20403;43.114;12.434;2022-12-07T03:09:35;98779.47;;;8.54;100.00
33280;BME280;20403;43.114;12.434;2022-12-07T03:14:31;98771.81;;;8.59;100.00
33280;BME280;20403;43.114;12.434;2022-12-07T03:17:02;98769.00;;;8.61;100.00
33280;BME280;20403;43.114;12.434;2022-12-07T03:19:30;98764.25;;;8.58;100.00
33280;BME280;20403;43.114;12.434;2022-12-07T03:21:59;98760.84;;;8.57;100.00
33280;BME280;20403;43.114;12.434;2022-12-07T03:24:31;98755.56;;;8.64;100.00
33280;BME280;20403;43.114;12.434;2022-12-07T03:27:05;98753.53;;;8.66;100.00
33280;BME280;20403;43.114;12.434;2022-12-07T03:29:34;98755.94;;;8.68;100.00
33280;BME280;20403;43.114;12.434;2022-12-07T03:33:01;98758.72;;;8.66;100.00
33280;BME280;20403;43.114;12.434;2022-12-07T03:40:11;98747.09;;;8.69;100.00
33280;BME280;20403;43.114;12.434;2022-12-07T03:42:38;98740.63;;;8.59;100.00
33280;BME280;20403;43.114;12.434;2022-12-07T03:45:04;98741.25;;;8.73;100.00
33280;BME280;20403;43.114;12.434;2022-12-07T03:47:31;98743.31;;;8.71;100.00
33280;BME280;20403;43.114;12.434;2022-12-07T03:50:08;98745.25;;;8.76;100.00
33280;BME280;20403;43.114;12.434;2022-12-07T03:57:45;98755.19;;;8.79;100.00
33280;BME280;20403;43.114;12.434;2022-12-07T04:00:12;98750.66;;;8.74;100.00
33280;BME280;20403;43.114;12.434;2022-12-07T04:02:38;98740.84;;;8.58;100.00
33280;BME280;20403;43.114;12.434;2022-12-07T04:05:04;98746.56;;;8.48;100.00
33280;BME280;20403;43.114;12.434;2022-12-07T04:07:29;98746.13;;;8.51;100.00
33280;BME280;20403;43.114;12.434;2022-12-07T04:09:54;98745.41;;;8.44;100.00
33280;BME280;20403;43.114;12.434;2022-12-07T04:12:20;98738.91;;;8.53;100.00
33280;BME280;20403;43.114;12.434;2022-12-07T04:14:46;98736.00;;;8.61;100.00
33280;BME280;20403;43.114;12.434;2022-12-07T04:17:11;98732.41;;;8.62;100.00
33280;BME280;20403;43.114;12.434;2022-12-07T04:19:36;98724.03;;;8.60;100.00
33280;BME280;20403;43.114;12.434;2022-12-07T04:22:03;98725.91;;;8.72;100.00
33280;BME280;20403;43.114;12.434;2022-12-07T04:24:29;98730.06;;;8.73;100.00
33280;BME280;20403;43.114;12.434;2022-12-07T04:26:54;98720.91;;;8.70;100.00
33280;BME280;20403;43.114;12.434;2022-12-07T04:29:20;98728.69;;;8.70;100.00
33280;BME280;20403;43.114;12.434;2022-12-07T04:31:45;98726.31;;;8.69;100.00
33280;BME280;20403;43.114;12.434;2022-12-07T04:34:11;98725.41;;;8.63;100.00
33280;BME280;20403;43.114;12.434;2022-12-07T04:36:37;98733.06;;;8.58;100.00
33280;BME280;20403;43.114;12.434;2022-12-07T04:39:03;98728.28;;;8.55;100.00
33280;BME280;20403;43.114;12.434;2022-12-07T04:41:28;98731.75;;;8.49;100.00
33280;BME280;20403;43.114;12.434;2022-12-07T04:43:57;98732.09;;;8.52;100.00
33280;BME280;20403;43.114;12.434;2022-12-07T04:46:23;98724.75;;;8.68;100.00
33280;BME280;20403;43.114;12.434;2022-12-07T04:48:49;98724.16;;;8.66;100.00
33280;BME280;20403;43.114;12.434;2022-12-07T04:51:16;98720.84;;;8.58;100.00
33280;BME280;20403;43.114;12.434;2022-12-07T04:53:43;98736.16;;;8.67;100.00
33280;BME280;20403;43.114;12.434;2022-12-07T04:56:08;98722.94;;;8.68;100.00
33280;BME280;20403;43.114;12.434;2022-12-07T04:58:33;98724.88;;;8.73;100.00
33280;BME280;20403;43.114;12.434;2022-12-07T05:00:59;98725.00;;;8.78;100.00
33280;BME280;20403;43.114;12.434;2022-12-07T05:03:24;98720.97;;;8.82;100.00
33280;BME280;20403;43.114;12.434;2022-12-07T05:05:49;98724.44;;;8.76;100.00
33280;BME280;20403;43.114;12.434;2022-12-07T05:08:15;98716.78;;;8.81;100.00
33280;BME280;20403;43.114;12.434;2022-12-07T05:10:40;98719.16;;;8.82;100.00
33280;BME280;20403;43.114;12.434;2022-12-07T05:13:05;98717.66;;;8.75;100.00
33280;BME280;20403;43.114;12.434;2022-12-07T05:15:30;98718.59;;;8.80;100.00
33280;BME280;20403;43.114;12.434;2022-12-07T05:17:56;98720.97;;;8.82;100.00
33280;BME280;20403;43.114;12.434;2022-12-07T05:20:21;98714.84;;;8.76;100.00
33280;BME280;20403;43.114;12.434;2022-12-07T05:22:46;98718.31;;;8.70;100.00
33280;BME280;20403;43.114;12.434;2022-12-07T05:25:12;98709.72;;;8.70;100.00
33280;BME280;20403;43.114;12.434;2022-12-07T05:27:37;98706.69;;;8.73;100.00
33280;BME280;20403;43.114;12.434;2022-12-07T05:30:03;98702.22;;;8.92;100.00
33280;BME280;20403;43.114;12.434;2022-12-07T05:32:28;98709.00;;;8.81;100.00
33280;BME280;20403;43.114;12.434;2022-12-07T05:34:53;98712.88;;;8.90;100.00
33280;BME280;20403;43.114;12.434;2022-12-07T05:37:19;98708.75;;;8.82;100.00
33280;BME280;20403;43.114;12.434;2022-12-07T05:39:45;98713.09;;;8.89;100.00
33280;BME280;20403;43.114;12.434;2022-12-07T05:42:10;98715.59;;;8.95;100.00
33280;BME280;20403;43.114;12.434;2022-12-07T05:44:38;98717.03;;;8.91;100.00
33280;BME280;20403;43.114;12.434;2022-12-07T05:47:04;98708.00;;;8.94;100.00
33280;BME280;20403;43.114;12.434;2022-12-07T05:49:29;98708.81;;;8.94;100.00
33280;BME280;20403;43.114;12.434;2022-12-07T05:51:55;98716.25;;;8.91;100.00
33280;BME280;20403;43.114;12.434;2022-12-07T05:54:20;98714.69;;;8.90;100.00
33280;BME280;20403;43.114;12.434;2022-12-07T05:56:45;98709.69;;;8.88;100.00
33280;BME280;20403;43.114;12.434;2022-12-07T05:59:11;98704.13;;;8.84;100.00
33280;BME280;20403;43.114;12.434;2022-12-07T06:01:52;98706.06;;;8.89;100.00
33280;BME280;20403;43.114;12.434;2022-12-07T06:04:18;98702.38;;;8.97;100.00
33280;BME280;20403;43.114;12.434;2022-12-07T06:06:43;98709.06;;;9.04;100.00
33280;BME280;20403;43.114;12.434;2022-12-07T06:09:08;98704.50;;;8.88;100.00
33280;BME280;20403;43.114;12.434;2022-12-07T06:11:34;98705.94;;;8.84;100.00
33280;BME280;20403;43.114;12.434;2022-12-07T06:14:18;98709.41;;;8.78;100.00
33280;BME280;20403;43.114;12.434;2022-12-07T06:16:43;98703.34;;;8.84;100.00
33280;BME280;20403;43.114;12.434;2022-12-07T06:19:09;98693.38;;;8.81;100.00
33280;BME280;20403;43.114;12.434;2022-12-07T06:21:34;98693.72;;;8.84;100.00
33280;BME280;20403;43.114;12.434;2022-12-07T06:23:59;98700.16;;;8.82;100.00
33280;BME280;20403;43.114;12.434;2022-12-07T06:26:25;98703.91;;;8.86;100.00
33280;BME280;20403;43.114;12.434;2022-12-07T06:28:50;98708.53;;;8.84;100.00
33280;BME280;20403;43.114;12.434;2022-12-07T06:31:15;98700.06;;;8.89;100.00
33280;BME280;20403;43.114;12.434;2022-12-07T06:33:41;98700.28;;;8.87;100.00
33280;BME280;20403;43.114;12.434;2022-12-07T06:36:07;98701.44;;;8.91;100.00
33280;BME280;20403;43.114;12.434;2022-12-07T06:38:32;98698.09;;;8.72;100.00
33280;BME280;20403;43.114;12.434;2022-12-07T06:40:57;98704.66;;;8.75;100.00
33280;BME280;20403;43.114;12.434;2022-12-07T06:43:22;98710.56;;;8.82;100.00
33280;BME280;20403;43.114;12.434;2022-12-07T06:45:48;98707.97;;;8.82;100.00
33280;BME280;20403;43.114;12.434;2022-12-07T06:48:13;98714.91;;;8.88;100.00
33280;BME280;20403;43.114;12.434;2022-12-07T06:50:39;98714.44;;;8.91;100.00
33280;BME280;20403;43.114;12.434;2022-12-07T06:53:04;98720.78;;;8.95;100.00
33280;BME280;20403;43.114;12.434;2022-12-07T06:55:30;98724.63;;;8.93;100.00
33280;BME280;20403;43.114;12.434;2022-12-07T06:57:55;98720.09;;;8.88;100.00
33280;BME280;20403;43.114;12.434;2022-12-07T07:00:20;98727.53;;;8.84;100.00
33280;BME280;20403;43.114;12.434;2022-12-07T07:02:46;98731.69;;;8.74;100.00
33280;BME280;20403;43.114;12.434;2022-12-07T07:05:11;98734.47;;;8.72;100.00
33280;BME280;20403;43.114;12.434;2022-12-07T07:07:36;98731.31;;;8.70;100.00
33280;BME280;20403;43.114;12.434;2022-12-07T07:10:02;98743.00;;;8.79;100.00
33280;BME280;20403;43.114;12.434;2022-12-07T07:12:27;98740.75;;;8.83;100.00
33280;BME280;20403;43.114;12.434;2022-12-07T07:14:52;98733.97;;;8.82;100.00
33280;BME280;20403;43.114;12.434;2022-12-07T07:17:18;98734.00;;;8.94;100.00
33280;BME280;20403;43.114;12.434;2022-12-07T07:19:43;98739.88;;;8.89;100.00
33280;BME280;20403;43.114;12.434;2022-12-07T07:22:08;98742.53;;;8.82;100.00
33280;BME280;20403;43.114;12.434;2022-12-07T07:24:34;98739.78;;;8.96;100.00
33280;BME280;20403;43.114;12.434;2022-12-07T07:26:59;98745.06;;;8.89;100.00
33280;BME280;20403;43.114;12.434;2022-12-07T07:29:24;98741.63;;;8.77;100.00
33280;BME280;20403;43.114;12.434;2022-12-07T07:31:49;98748.84;;;8.75;100.00
33280;BME280;20403;43.114;12.434;2022-12-07T07:34:15;98741.84;;;8.75;100.00
33280;BME280;20403;43.114;12.434;2022-12-07T07:36:40;98746.91;;;8.70;100.00
33280;BME280;20403;43.114;12.434;2022-12-07T07:39:05;98751.56;;;8.80;100.00
33280;BME280;20403;43.114;12.434;2022-12-07T07:41:31;98743.56;;;8.81;100.00
33280;BME280;20403;43.114;12.434;2022-12-07T07:43:56;98744.16;;;8.65;100.00
33280;BME280;20403;43.114;12.434;2022-12-07T07:46:21;98748.41;;;8.59;100.00
33280;BME280;20403;43.114;12.434;2022-12-07T07:48:47;98749.00;;;8.61;100.00
33280;BME280;20403;43.114;12.434;2022-12-07T07:51:12;98750.47;;;8.57;100.00
33280;BME280;20403;43.114;12.434;2022-12-07T07:53:37;98755.34;;;8.66;100.00
33280;BME280;20403;43.114;12.434;2022-12-07T07:56:03;98745.47;;;8.56;100.00
33280;BME280;20403;43.114;12.434;2022-12-07T07:58:28;98742.22;;;8.60;100.00
33280;BME280;20403;43.114;12.434;2022-12-07T08:00:53;98738.44;;;8.75;100.00
33280;BME280;20403;43.114;12.434;2022-12-07T08:03:19;98738.16;;;8.83;100.00
33280;BME280;20403;43.114;12.434;2022-12-07T08:05:44;98738.63;;;8.92;100.00
33280;BME280;20403;43.114;12.434;2022-12-07T08:08:10;98735.75;;;9.00;100.00
33280;BME280;20403;43.114;12.434;2022-12-07T08:10:35;98744.06;;;8.90;100.00
33280;BME280;20403;43.114;12.434;2022-12-07T08:13:02;98731.00;;;8.97;100.00
33280;BME280;20403;43.114;12.434;2022-12-07T08:15:37;98737.91;;;9.03;100.00
33280;BME280;20403;43.114;12.434;2022-12-07T08:18:03;98741.00;;;9.12;100.00
33280;BME280;20403;43.114;12.434;2022-12-07T08:20:31;98735.50;;;9.20;100.00
33280;BME280;20403;43.114;12.434;2022-12-07T08:22:57;98744.00;;;9.27;100.00
33280;BME280;20403;43.114;12.434;2022-12-07T08:25:23;98743.75;;;9.29;100.00
33280;BME280;20403;43.114;12.434;2022-12-07T08:27:48;98742.00;;;9.41;100.00
33280;BME280;20403;43.114;12.434;2022-12-07T08:30:14;98744.59;;;9.41;100.00
33280;BME280;20403;43.114;12.434;2022-12-07T08:32:39;98750.97;;;9.57;100.00
33280;BME280;20403;43.114;12.434;2022-12-07T08:35:05;98748.91;;;9.59;100.00
33280;BME280;20403;43.114;12.434;2022-12-07T08:37:31;98760.28;;;9.76;100.00
33280;BME280;20403;43.114;12.434;2022-12-07T08:39:56;98765.84;;;9.80;100.00
33280;BME280;20403;43.114;12.434;2022-12-07T08:42:21;98764.34;;;9.72;100.00
33280;BME280;20403;43.114;12.434;2022-12-07T08:44:48;98774.66;;;9.91;100.00
33280;BME280;20403;43.114;12.434;2022-12-07T08:47:13;98780.91;;;10.01;100.00
33280;BME280;20403;43.114;12.434;2022-12-07T08:49:43;98782.28;;;10.04;100.00
33280;BME280;20403;43.114;12.434;2022-12-07T08:52:10;98776.38;;;9.97;100.00
33280;BME280;20403;43.114;12.434;2022-12-07T08:54:36;98767.78;;;10.08;100.00
33280;BME280;20403;43.114;12.434;2022-12-07T08:57:03;98771.97;;;10.21;100.00
33280;BME280;20403;43.114;12.434;2022-12-07T08:59:29;98767.44;;;10.16;100.00
33280;BME280;20403;43.114;12.434;2022-12-07T09:01:55;98772.09;;;10.26;100.00
33280;BME280;20403;43.114;12.434;2022-12-07T09:04:20;98773.03;;;10.32;100.00
33280;BME280;20403;43.114;12.434;2022-12-07T09:06:46;98770.78;;;10.35;100.00
33280;BME280;20403;43.114;12.434;2022-12-07T09:09:12;98783.34;;;10.38;100.00
33280;BME280;20403;43.114;12.434;2022-12-07T09:11:38;98772.53;;;10.46;100.00
33280;BME280;20403;43.114;12.434;2022-12-07T09:14:04;98776.16;;;10.57;100.00
33280;BME280;20403;43.114;12.434;2022-12-07T09:16:29;98772.41;;;10.65;100.00
33280;BME280;20403;43.114;12.434;2022-12-07T09:18:55;98770.34;;;10.79;100.00
33280;BME280;20403;43.114;12.434;2022-12-07T09:21:20;98766.03;;;10.84;100.00
33280;BME280;20403;43.114;12.434;2022-12-07T09:23:46;98760.91;;;10.89;100.00
33280;BME280;20403;43.114;12.434;2022-12-07T09:26:11;98765.41;;;10.94;100.00
33280;BME280;20403;43.114;12.434;2022-12-07T09:28:36;98763.84;;;10.93;100.00
33280;BME280;20403;43.114;12.434;2022-12-07T09:31:02;98771.13;;;10.91;100.00
33280;BME280;20403;43.114;12.434;2022-12-07T09:33:28;98759.63;;;10.92;100.00
33280;BME280;20403;43.114;12.434;2022-12-07T09:35:53;98766.91;;;10.90;100.00
33280;BME280;20403;43.114;12.434;2022-12-07T09:38:19;98761.78;;;10.95;100.00
33280;BME280;20403;43.114;12.434;2022-12-07T09:40:44;98762.81;;;10.94;100.00
33280;BME280;20403;43.114;12.434;2022-12-07T09:43:12;98752.84;;;10.91;100.00
33280;BME280;20403;43.114;12.434;2022-12-07T09:45:38;98754.13;;;10.88;100.00
33280;BME280;20403;43.114;12.434;2022-12-07T09:48:03;98748.78;;;10.83;100.00
33280;BME280;20403;43.114;12.434;2022-12-07T09:50:29;98747.34;;;10.76;100.00
33280;BME280;20403;43.114;12.434;2022-12-07T09:52:56;98740.59;;;10.91;100.00
33280;BME280;20403;43.114;12.434;2022-12-07T09:55:29;98741.59;;;11.02;100.00
33280;BME280;20403;43.114;12.434;2022-12-07T09:57:55;98739.63;;;11.09;100.00
33280;BME280;20403;43.114;12.434;2022-12-07T10:00:21;98726.03;;;11.07;100.00
33280;BME280;20403;43.114;12.434;2022-12-07T10:02:57;98726.97;;;11.18;100.00
33280;BME280;20403;43.114;12.434;2022-12-07T10:05:27;98728.19;;;11.27;100.00
33280;BME280;20403;43.114;12.434;2022-12-07T10:07:54;98723.50;;;11.29;100.00
33280;BME280;20403;43.114;12.434;2022-12-07T10:10:28;98722.25;;;11.32;100.00
33280;BME280;20403;43.114;12.434;2022-12-07T10:13:02;98714.38;;;11.44;100.00
33280;BME280;20403;43.114;12.434;2022-12-07T10:15:41;98712.78;;;11.60;100.00
33280;BME280;20403;43.114;12.434;2022-12-07T10:18:17;98706.84;;;11.64;100.00
33280;BME280;20403;43.114;12.434;2022-12-07T10:20:43;98711.19;;;11.75;100.00
33280;BME280;20403;43.114;12.434;2022-12-07T10:23:14;98704.31;;;11.86;100.00
33280;BME280;20403;43.114;12.434;2022-12-07T10:25:39;98698.47;;;11.96;100.00
33280;BME280;20403;43.114;12.434;2022-12-07T10:36:22;98692.38;;;12.51;100.00
33280;BME280;20403;43.114;12.434;2022-12-07T10:38:49;98686.72;;;12.59;100.00
33280;BME280;20403;43.114;12.434;2022-12-07T10:41:14;98678.00;;;12.76;100.00
33280;BME280;20403;43.114;12.434;2022-12-07T10:43:46;98675.63;;;12.74;100.00
33280;BME280;20403;43.114;12.434;2022-12-07T10:54:09;98669.28;;;12.70;100.00
33280;BME280;20403;43.114;12.434;2022-12-07T11:01:49;98663.19;;;12.59;100.00
33280;BME280;20403;43.114;12.434;2022-12-07T11:04:24;98663.66;;;12.56;100.00
33280;BME280;20403;43.114;12.434;2022-12-07T11:11:59;98666.75;;;12.31;100.00
33280;BME280;20403;43.114;12.434;2022-12-07T11:14:40;98673.53;;;12.27;100.00
33280;BME280;20403;43.114;12.434;2022-12-07T11:22:23;98666.41;;;12.23;100.00
33280;BME280;20403;43.114;12.434;2022-12-07T11:27:28;98671.03;;;12.15;100.00
33280;BME280;20403;43.114;12.434;2022-12-07T11:32:41;98650.13;;;12.37;100.00
33280;BME280;20403;43.114;12.434;2022-12-07T11:37:40;98656.34;;;12.58;100.00
33280;BME280;20403;43.114;12.434;2022-12-07T11:42:39;98646.41;;;12.33;100.00
33280;BME280;20403;43.114;12.434;2022-12-07T11:45:16;98632.66;;;12.21;100.00
33280;BME280;20403;43.114;12.434;2022-12-07T11:47:48;98629.69;;;12.12;100.00
33280;BME280;20403;43.114;12.434;2022-12-07T11:55:15;98627.91;;;12.62;100.00
33280;BME280;20403;43.114;12.434;2022-12-07T11:57:44;98618.47;;;12.88;100.00
33280;BME280;20403;43.114;12.434;2022-12-07T12:00:14;98609.13;;;12.97;100.00
33280;BME280;20403;43.114;12.434;2022-12-07T12:07:39;98590.97;;;12.86;100.00
33280;BME280;20403;43.114;12.434;2022-12-07T12:10:14;98592.53;;;12.87;100.00
33280;BME280;20403;43.114;12.434;2022-12-07T12:23:00;98593.03;;;12.56;100.00
33280;BME280;20403;43.114;12.434;2022-12-07T12:25:29;98587.25;;;12.54;100.00
33280;BME280;20403;43.114;12.434;2022-12-07T12:27:57;98591.75;;;12.59;100.00
33280;BME280;20403;43.114;12.434;2022-12-07T12:30:25;98589.22;;;12.64;100.00
33280;BME280;20403;43.114;12.434;2022-12-07T12:32:51;98587.66;;;12.68;100.00
33280;BME280;20403;43.114;12.434;2022-12-07T12:37:48;98567.59;;;13.43;100.00
33280;BME280;20403;43.114;12.434;2022-12-07T12:45:17;98561.63;;;13.53;100.00
33280;BME280;20403;43.114;12.434;2022-12-07T12:50:20;98554.94;;;13.35;100.00
33280;BME280;20403;43.114;12.434;2022-12-07T12:52:49;98559.56;;;13.23;100.00
33280;BME280;20403;43.114;12.434;2022-12-07T12:55:17;98553.47;;;13.12;100.00
33280;BME280;20403;43.114;12.434;2022-12-07T12:57:46;98552.31;;;12.98;100.00
33280;BME280;20403;43.114;12.434;2022-12-07T13:02:53;98571.34;;;12.88;100.00
33280;BME280;20403;43.114;12.434;2022-12-07T13:05:29;98572.88;;;12.84;100.00
33280;BME280;20403;43.114;12.434;2022-12-07T13:07:58;98572.53;;;12.75;100.00
33280;BME280;20403;43.114;12.434;2022-12-07T13:15:40;98584.44;;;12.61;100.00
33280;BME280;20403;43.114;12.434;2022-12-07T13:20:40;98562.47;;;12.57;100.00
33280;BME280;20403;43.114;12.434;2022-12-07T13:23:08;98566.56;;;12.48;100.00
33280;BME280;20403;43.114;12.434;2022-12-07T13:25:36;98561.75;;;12.39;100.00
33280;BME280;20403;43.114;12.434;2022-12-07T13:28:10;98565.91;;;12.35;100.00
33280;BME280;20403;43.114;12.434;2022-12-07T13:30:42;98570.09;;;12.36;100.00
33280;BME280;20403;43.114;12.434;2022-12-07T13:33:09;98567.50;;;12.36;100.00
33280;BME280;20403;43.114;12.434;2022-12-07T13:35:36;98569.78;;;12.33;100.00
33280;BME280;20403;43.114;12.434;2022-12-07T13:38:05;98576.63;;;12.34;100.00
33280;BME280;20403;43.114;12.434;2022-12-07T13:40:40;98572.91;;;12.30;100.00
33280;BME280;20403;43.114;12.434;2022-12-07T13:43:05;98571.88;;;12.31;100.00
33280;BME280;20403;43.114;12.434;2022-12-07T13:45:38;98565.16;;;12.40;100.00
33280;BME280;20403;43.114;12.434;2022-12-07T13:48:18;98573.03;;;12.45;100.00
33280;BME280;20403;43.114;12.434;2022-12-07T13:50:52;98566.84;;;12.51;100.00
33280;BME280;20403;43.114;12.434;2022-12-07T13:53:17;98560.72;;;12.40;100.00
33280;BME280;20403;43.114;12.434;2022-12-07T13:55:46;98568.31;;;12.42;100.00
33280;BME280;20403;43.114;12.434;2022-12-07T13:58:12;98576.41;;;12.40;100.00
33280;BME280;20403;43.114;12.434;2022-12-07T14:00:37;98571.63;;;12.32;100.00
33280;BME280;20403;43.114;12.434;2022-12-07T14:05:39;98563.28;;;12.35;100.00
33280;BME280;20403;43.114;12.434;2022-12-07T14:08:05;98571.03;;;12.25;100.00
33280;BME280;20403;43.114;12.434;2022-12-07T14:15:49;98577.13;;;12.09;100.00
33280;BME280;20403;43.114;12.434;2022-12-07T14:18:24;98572.91;;;12.08;100.00
33280;BME280;20403;43.114;12.434;2022-12-07T14:20:52;98578.16;;;12.08;100.00
33280;BME280;20403;43.114;12.434;2022-12-07T14:23:27;98573.41;;;12.05;100.00
33280;BME280;20403;43.114;12.434;2022-12-07T14:25:52;98577.16;;;11.92;100.00
33280;BME280;20403;43.114;12.434;2022-12-07T14:28:28;98573.28;;;11.94;100.00
33280;BME280;20403;43.114;12.434;2022-12-07T14:30:53;98585.50;;;11.89;100.00
33280;BME280;20403;43.114;12.434;2022-12-07T14:33:19;98589.44;;;11.91;100.00
33280;BME280;20403;43.114;12.434;2022-12-07T14:35:45;98587.88;;;11.90;100.00
33280;BME280;20403;43.114;12.434;2022-12-07T14:38:11;98584.22;;;11.91;100.00
33280;BME280;20403;43.114;12.434;2022-12-07T14:40:36;98590.00;;;11.93;100.00
33280;BME280;20403;43.114;12.434;2022-12-07T14:43:05;98591.84;;;11.93;100.00
33280;BME280;20403;43.114;12.434;2022-12-07T14:45:31;98585.72;;;11.87;100.00
33280;BME280;20403;43.114;12.434;2022-12-07T14:47:57;98586.28;;;11.89;100.00
33280;BME280;20403;43.114;12.434;2022-12-07T14:50:22;98583.03;;;11.82;100.00
33280;BME280;20403;43.114;12.434;2022-12-07T14:55:25;98588.50;;;11.81;100.00